createdAt,value
2019-04-10T00:00:06.425Z,491.23
2019-04-10T00:01:08.202Z,493.76
2019-04-10T00:02:07.014Z,493.75
2019-04-10T00:03:06.239Z,495.99
2019-04-10T00:04:07.047Z,493.33
2019-04-10T00:05:05.997Z,491.83
2019-04-10T00:06:06.746Z,494.42
2019-04-10T00:07:12.690Z,493.60
2019-04-10T00:08:08.135Z,493.88
2019-04-10T00:09:06.415Z,493.15
2019-04-10T00:10:05.959Z,491.55
2019-04-10T00:11:05.928Z,495.60
2019-04-10T00:12:05.918Z,492.43
2019-04-10T00:13:06.692Z,494.83
2019-04-10T00:14:05.896Z,493.93
2019-04-10T00:15:05.896Z,494.54
2019-04-10T00:16:05.872Z,491.67
2019-04-10T00:17:06.845Z,492.02
2019-04-10T00:18:05.863Z,491.96
2019-04-10T00:19:06.579Z,492.65
2019-04-10T00:20:05.871Z,492.51
2019-04-10T00:21:05.813Z,493.80
2019-04-10T00:22:06.260Z,493.37
2019-04-10T00:23:06.786Z,491.01
2019-04-10T00:24:06.069Z,492.05
2019-04-10T00:25:05.765Z,492.10
2019-04-10T00:26:05.775Z,491.31
2019-04-10T00:27:06.121Z,493.01
2019-04-10T00:28:05.746Z,493.21
2019-04-10T00:29:05.821Z,493.09
2019-04-10T00:30:06.859Z,492.57
2019-04-10T00:31:05.746Z,491.14
2019-04-10T00:32:05.767Z,491.61
2019-04-10T00:33:05.695Z,493.34
2019-04-10T00:34:05.674Z,493.56
2019-04-10T00:35:06.482Z,493.41
2019-04-10T00:36:05.861Z,493.95
2019-04-10T00:37:05.905Z,493.58
2019-04-10T00:38:05.627Z,494.39
2019-04-10T00:39:06.435Z,492.46
2019-04-10T00:40:05.604Z,493.74
2019-04-10T00:41:06.005Z,492.77
2019-04-10T00:42:05.575Z,494.23
2019-04-10T00:43:06.524Z,493.68
2019-04-10T00:44:05.816Z,493.18
2019-04-10T00:45:05.560Z,492.17
2019-04-10T00:46:06.196Z,493.17
2019-04-10T00:47:06.526Z,493.99
2019-04-10T00:48:05.810Z,493.08
2019-04-10T00:49:05.489Z,492.25
2019-04-10T00:50:06.434Z,491.98
2019-04-10T00:51:05.510Z,493.19
2019-04-10T00:52:06.023Z,493.66
2019-04-10T00:53:05.450Z,492.87
2019-04-10T00:54:05.704Z,492.53
2019-04-10T00:55:05.730Z,494.68
2019-04-10T00:56:05.469Z,490.82
2019-04-10T00:57:05.441Z,491.55
2019-04-10T00:58:05.858Z,493.31
2019-04-10T00:59:06.002Z,494.67
2019-04-10T01:00:06.452Z,492.52
2019-04-10T01:01:05.581Z,493.40
2019-04-10T01:02:05.377Z,493.49
2019-04-10T01:03:05.358Z,491.69
2019-04-10T01:04:06.781Z,492.77
2019-04-10T01:05:05.325Z,491.93
2019-04-10T01:06:05.962Z,493.28
2019-04-10T01:07:05.389Z,491.27
2019-04-10T01:08:06.489Z,493.24
2019-04-10T01:09:05.292Z,493.10
2019-04-10T01:10:06.055Z,491.65
2019-04-10T01:11:05.257Z,494.52
2019-04-10T01:12:05.766Z,492.67
2019-04-10T01:13:05.256Z,492.41
2019-04-10T01:14:05.492Z,491.09
2019-04-10T01:15:05.234Z,492.26
2019-04-10T01:16:05.207Z,494.24
2019-04-10T01:17:06.212Z,493.76
2019-04-10T01:18:05.197Z,491.69
2019-04-10T01:19:05.833Z,493.86
2019-04-10T01:20:05.172Z,492.22
2019-04-10T01:21:06.108Z,482.51
2019-04-10T01:22:05.157Z,489.16
2019-04-10T01:23:05.842Z,491.16
2019-04-10T01:24:05.749Z,491.48
2019-04-10T01:25:06.076Z,488.67
2019-04-10T01:26:05.264Z,490.44
2019-04-10T01:27:05.117Z,490.69
2019-04-10T01:28:05.084Z,492.11
2019-04-10T01:29:05.180Z,488.56
2019-04-10T01:30:06.965Z,486.87
2019-04-10T01:31:05.056Z,486.57
2019-04-10T01:32:05.708Z,491.14
2019-04-10T01:33:06.110Z,491.78
2019-04-10T01:34:05.361Z,492.91
2019-04-10T01:35:05.777Z,515.05
2019-04-10T01:36:04.997Z,491.93
2019-04-10T01:37:04.983Z,512.67
2019-04-10T01:38:06.387Z,488.75
2019-04-10T01:39:06.136Z,510.11
2019-04-10T01:40:04.940Z,488.96
2019-04-10T01:41:05.751Z,512.72
2019-04-10T01:42:06.063Z,491.14
2019-04-10T01:43:11.410Z,512.95
2019-04-10T01:44:05.908Z,491.33
2019-04-10T01:45:04.983Z,511.78
2019-04-10T01:46:04.883Z,491.98
2019-04-10T01:47:04.858Z,511.73
2019-04-10T01:48:05.920Z,513.46
2019-04-10T01:49:05.208Z,511.80
2019-04-10T01:50:04.836Z,489.82
2019-04-10T01:51:04.820Z,513.25
2019-04-10T01:52:04.888Z,513.18
2019-04-10T01:53:05.618Z,512.18
2019-04-10T01:54:04.866Z,489.35
2019-04-10T01:55:17.286Z,512.62
2019-04-10T01:56:05.781Z,511.12
2019-04-10T01:57:04.763Z,511.56
2019-04-10T01:58:05.122Z,511.59
2019-04-10T01:59:05.615Z,515.31
2019-04-10T02:00:04.749Z,488.61
2019-04-10T02:01:04.707Z,513.89
2019-04-10T02:02:05.153Z,491.65
2019-04-10T02:03:05.566Z,515.65
2019-04-10T02:04:04.741Z,492.17
2019-04-10T02:05:04.667Z,513.34
2019-04-10T02:06:05.165Z,492.65
2019-04-10T02:07:05.576Z,511.86
2019-04-10T02:08:08.992Z,488.41
2019-04-10T02:09:06.459Z,512.18
2019-04-10T02:10:04.677Z,488.62
2019-04-10T02:11:04.860Z,509.88
2019-04-10T02:12:04.600Z,489.39
2019-04-10T02:13:05.362Z,512.68
2019-04-10T02:14:05.629Z,512.28
2019-04-10T02:15:04.855Z,510.27
2019-04-10T02:16:04.587Z,510.12
2019-04-10T02:17:04.546Z,511.23
2019-04-10T02:18:05.395Z,511.04
2019-04-10T02:19:04.537Z,513.00
2019-04-10T02:20:04.921Z,512.22
2019-04-10T02:21:04.507Z,511.94
2019-04-10T02:22:04.498Z,490.55
2019-04-10T02:23:04.478Z,512.59
2019-04-10T02:24:05.027Z,514.25
2019-04-10T02:25:05.241Z,513.24
2019-04-10T02:26:05.360Z,513.46
2019-04-10T02:27:04.437Z,514.84
2019-04-10T02:28:04.873Z,513.50
2019-04-10T02:29:04.444Z,513.13
2019-04-10T02:30:05.122Z,488.07
2019-04-10T02:31:04.827Z,511.28
2019-04-10T02:32:04.707Z,492.18
2019-04-10T02:33:04.746Z,510.57
2019-04-10T02:34:05.380Z,488.08
2019-04-10T02:35:06.120Z,512.75
2019-04-10T02:36:05.649Z,489.42
2019-04-10T02:37:04.341Z,512.83
2019-04-10T02:38:22.159Z,490.33
2019-04-10T02:39:16.920Z,510.76
2019-04-10T02:40:07.112Z,486.86
2019-04-10T02:41:05.871Z,513.99
2019-04-10T02:42:05.972Z,488.48
2019-04-10T02:43:05.643Z,512.40
2019-04-10T02:44:04.889Z,512.08
2019-04-10T02:45:05.813Z,509.29
2019-04-10T02:46:04.674Z,514.09
2019-04-10T02:47:04.547Z,488.17
2019-04-10T02:48:05.919Z,491.71
2019-04-10T02:49:04.702Z,513.12
2019-04-10T02:50:06.140Z,513.87
2019-04-10T02:51:05.539Z,514.04
2019-04-10T02:52:04.225Z,515.60
2019-04-10T02:53:05.559Z,513.62
2019-04-10T02:54:05.003Z,511.63
2019-04-10T02:55:05.972Z,515.61
2019-04-10T02:56:05.416Z,512.62
2019-04-10T02:57:05.413Z,513.01
2019-04-10T02:58:05.823Z,516.11
2019-04-10T02:59:04.985Z,511.90
2019-04-10T03:00:05.471Z,513.07
2019-04-10T03:01:04.061Z,490.09
2019-04-10T03:02:04.326Z,512.55
2019-04-10T03:03:05.396Z,491.92
2019-04-10T03:04:05.384Z,511.75
2019-04-10T03:05:04.585Z,491.33
2019-04-10T03:06:05.106Z,516.00
2019-04-10T03:07:04.377Z,491.93
2019-04-10T03:08:04.872Z,515.60
2019-04-10T03:09:18.982Z,494.05
2019-04-10T03:10:15.220Z,515.08
2019-04-10T03:11:09.339Z,493.47
2019-04-10T03:12:06.137Z,515.06
2019-04-10T03:13:04.701Z,492.65
2019-04-10T03:14:04.611Z,493.00
2019-04-10T03:15:05.559Z,492.67
2019-04-10T03:16:05.333Z,516.55
2019-04-10T03:17:03.900Z,492.84
2019-04-10T03:18:04.262Z,513.76
2019-04-10T03:19:03.867Z,512.41
2019-04-10T03:20:03.881Z,513.14
2019-04-10T03:21:04.778Z,514.37
2019-04-10T03:22:03.953Z,512.68
2019-04-10T03:23:03.844Z,489.12
2019-04-10T03:24:04.233Z,512.38
2019-04-10T03:25:04.511Z,486.16
2019-04-10T03:26:03.794Z,510.35
2019-04-10T03:27:03.835Z,510.93
2019-04-10T03:28:04.981Z,514.23
2019-04-10T03:29:03.756Z,490.05
2019-04-10T03:30:05.185Z,512.48
2019-04-10T03:31:05.853Z,488.63
2019-04-10T03:32:04.592Z,488.54
2019-04-10T03:33:06.597Z,491.12
2019-04-10T03:34:08.153Z,491.80
2019-04-10T03:35:03.691Z,492.88
2019-04-10T03:36:03.695Z,491.50
2019-04-10T03:37:04.384Z,493.71
2019-04-10T03:38:03.675Z,492.90
2019-04-10T03:39:06.433Z,491.17
2019-04-10T03:40:03.648Z,492.05
2019-04-10T03:41:03.991Z,490.38
2019-04-10T03:42:04.385Z,477.57
2019-04-10T03:43:03.611Z,480.45
2019-04-10T03:44:03.662Z,481.68
2019-04-10T03:45:03.584Z,482.09
2019-04-10T03:46:03.597Z,486.11
2019-04-10T03:47:03.572Z,484.66
2019-04-10T03:48:04.770Z,483.67
2019-04-10T03:49:03.539Z,489.15
2019-04-10T03:50:04.573Z,486.21
2019-04-10T03:51:03.993Z,492.13
2019-04-10T03:52:03.508Z,490.48
2019-04-10T03:53:03.506Z,493.47
2019-04-10T03:54:03.489Z,490.78
2019-04-10T03:55:03.484Z,489.52
2019-04-10T03:56:03.475Z,492.21
2019-04-10T03:57:04.504Z,488.99
2019-04-10T03:58:03.440Z,490.82
2019-04-10T03:59:04.136Z,489.86
2019-04-10T04:00:03.708Z,489.25
2019-04-10T04:01:03.434Z,492.47
2019-04-10T04:02:03.412Z,491.37
2019-04-10T04:03:04.360Z,488.79
2019-04-10T04:04:03.379Z,490.49
2019-04-10T04:05:04.336Z,489.12
2019-04-10T04:06:03.619Z,488.11
2019-04-10T04:07:03.370Z,486.24
2019-04-10T04:08:04.168Z,490.65
2019-04-10T04:09:09.558Z,489.16
2019-04-10T04:10:04.416Z,490.04
2019-04-10T04:11:03.303Z,489.50
2019-04-10T04:12:04.351Z,491.08
2019-04-10T04:13:04.977Z,488.12
2019-04-10T04:14:04.037Z,491.09
2019-04-10T04:15:03.672Z,490.58
2019-04-10T04:16:03.358Z,490.76
2019-04-10T04:17:04.020Z,492.45
2019-04-10T04:18:03.222Z,490.87
2019-04-10T04:19:03.891Z,488.67
2019-04-10T04:20:04.351Z,489.20
2019-04-10T04:21:03.483Z,488.65
2019-04-10T04:22:04.025Z,489.97
2019-04-10T04:23:03.464Z,491.92
2019-04-10T04:24:03.631Z,489.62
2019-04-10T04:25:03.212Z,487.92
2019-04-10T04:26:03.146Z,489.28
2019-04-10T04:27:03.151Z,489.22
2019-04-10T04:28:03.115Z,489.13
2019-04-10T04:29:03.110Z,489.73
2019-04-10T04:30:04.163Z,488.86
2019-04-10T04:31:03.172Z,486.85
2019-04-10T04:32:03.074Z,489.76
2019-04-10T04:33:03.079Z,489.97
2019-04-10T04:34:03.947Z,485.25
2019-04-10T04:35:03.043Z,489.74
2019-04-10T04:36:03.788Z,487.52
2019-04-10T04:37:03.058Z,488.51
2019-04-10T04:38:03.018Z,486.08
2019-04-10T04:39:12.766Z,484.35
2019-04-10T04:40:04.081Z,485.44
2019-04-10T04:41:02.970Z,488.47
2019-04-10T04:42:03.107Z,484.35
2019-04-10T04:43:03.656Z,484.48
2019-04-10T04:44:03.881Z,485.58
2019-04-10T04:45:03.136Z,484.93
2019-04-10T04:46:03.288Z,485.48
2019-04-10T04:47:03.417Z,485.25
2019-04-10T04:48:02.890Z,485.85
2019-04-10T04:49:02.897Z,483.66
2019-04-10T04:50:03.541Z,488.30
2019-04-10T04:51:03.257Z,486.17
2019-04-10T04:52:02.862Z,487.73
2019-04-10T04:53:02.842Z,487.16
2019-04-10T04:54:02.838Z,487.64
2019-04-10T04:55:03.859Z,488.45
2019-04-10T04:56:03.802Z,486.26
2019-04-10T04:57:02.837Z,487.52
2019-04-10T04:58:02.803Z,485.03
2019-04-10T04:59:03.618Z,485.37
2019-04-10T05:00:03.255Z,484.38
2019-04-10T05:01:02.749Z,485.09
2019-04-10T05:02:03.430Z,485.51
2019-04-10T05:03:02.734Z,477.12
2019-04-10T05:04:02.747Z,481.10
2019-04-10T05:05:02.708Z,477.33
2019-04-10T05:06:03.767Z,477.88
2019-04-10T05:07:02.704Z,477.47
2019-04-10T05:08:05.161Z,480.04
2019-04-10T05:09:02.847Z,478.84
2019-04-10T05:10:02.705Z,475.95
2019-04-10T05:11:02.637Z,476.40
2019-04-10T05:12:02.932Z,478.63
2019-04-10T05:13:02.619Z,480.44
2019-04-10T05:14:02.816Z,479.37
2019-04-10T05:15:02.676Z,477.78
2019-04-10T05:16:02.696Z,478.84
2019-04-10T05:17:02.584Z,478.87
2019-04-10T05:18:02.568Z,479.88
2019-04-10T05:19:02.564Z,481.79
2019-04-10T05:20:02.967Z,480.48
2019-04-10T05:21:03.023Z,483.20
2019-04-10T05:22:02.740Z,481.63
2019-04-10T05:23:02.517Z,481.46
2019-04-10T05:24:03.255Z,478.66
2019-04-10T05:25:03.048Z,482.38
2019-04-10T05:26:02.557Z,480.78
2019-04-10T05:27:02.493Z,480.24
2019-04-10T05:28:03.582Z,479.10
2019-04-10T05:29:02.714Z,476.94
2019-04-10T05:30:02.484Z,474.76
2019-04-10T05:31:03.122Z,477.81
2019-04-10T05:32:02.450Z,474.96
2019-04-10T05:33:02.418Z,474.27
2019-04-10T05:34:03.076Z,475.50
2019-04-10T05:35:05.208Z,478.36
2019-04-10T05:36:02.367Z,474.67
2019-04-10T05:37:03.146Z,474.31
2019-04-10T05:38:02.591Z,472.51
2019-04-10T05:39:02.342Z,477.88
2019-04-10T05:40:03.318Z,475.66
2019-04-10T05:41:02.312Z,476.01
2019-04-10T05:42:02.754Z,477.66
2019-04-10T05:43:02.320Z,478.74
2019-04-10T05:44:02.823Z,477.26
2019-04-10T05:45:03.150Z,478.82
2019-04-10T05:46:02.861Z,478.75
2019-04-10T05:47:03.385Z,481.92
2019-04-10T05:48:03.233Z,480.53
2019-04-10T05:49:02.338Z,478.87
2019-04-10T05:50:02.236Z,480.40
2019-04-10T05:51:04.791Z,482.08
2019-04-10T05:52:02.257Z,479.54
2019-04-10T05:53:02.374Z,478.44
2019-04-10T05:54:02.350Z,477.85
2019-04-10T05:55:02.333Z,478.25
2019-04-10T05:56:02.148Z,480.86
2019-04-10T05:57:02.234Z,481.78
2019-04-10T05:58:02.280Z,480.19
2019-04-10T05:59:03.022Z,473.94
2019-04-10T06:00:02.701Z,484.27
2019-04-10T06:01:02.094Z,481.04
2019-04-10T06:02:03.079Z,477.61
2019-04-10T06:03:02.097Z,482.51
2019-04-10T06:04:03.078Z,477.74
2019-04-10T06:05:02.353Z,482.23
2019-04-10T06:06:02.034Z,482.05
2019-04-10T06:07:03.019Z,483.17
2019-04-10T06:08:02.062Z,479.60
2019-04-10T06:09:02.536Z,477.45
2019-04-10T06:10:05.665Z,483.81
2019-04-10T06:11:02.976Z,480.62
2019-04-10T06:12:03.492Z,480.96
2019-04-10T06:13:02.657Z,478.56
2019-04-10T06:14:03.146Z,479.91
2019-04-10T06:15:02.636Z,481.86
2019-04-10T06:16:01.931Z,477.54
2019-04-10T06:17:04.104Z,480.12
2019-04-10T06:18:02.839Z,481.21
2019-04-10T06:19:01.923Z,479.83
2019-04-10T06:20:01.892Z,479.16
2019-04-10T06:21:02.876Z,480.77
2019-04-10T06:22:02.861Z,480.85
2019-04-10T06:23:01.860Z,480.62
2019-04-10T06:24:01.848Z,480.56
2019-04-10T06:25:03.648Z,486.10
2019-04-10T06:26:03.394Z,486.13
2019-04-10T06:27:01.978Z,481.75
2019-04-10T06:28:01.797Z,486.30
2019-04-10T06:29:02.405Z,482.74
2019-04-10T06:30:01.953Z,484.32
2019-04-10T06:31:01.784Z,486.17
2019-04-10T06:32:01.759Z,491.69
2019-04-10T06:33:02.155Z,482.94
2019-04-10T06:34:01.740Z,488.90
2019-04-10T06:35:02.015Z,484.22
2019-04-10T06:36:02.768Z,489.98
2019-04-10T06:37:01.953Z,488.24
2019-04-10T06:38:02.330Z,490.48
2019-04-10T06:39:02.682Z,487.32
2019-04-10T06:40:10.707Z,490.89
2019-04-10T06:41:02.644Z,490.86
2019-04-10T06:42:02.564Z,488.74
2019-04-10T06:43:01.674Z,488.55
2019-04-10T06:44:01.658Z,489.91
2019-04-10T06:45:02.724Z,489.05
2019-04-10T06:46:01.605Z,490.94
2019-04-10T06:47:02.177Z,493.23
2019-04-10T06:48:02.442Z,491.94
2019-04-10T06:49:03.103Z,493.14
2019-04-10T06:50:02.590Z,490.47
2019-04-10T06:51:02.041Z,489.24
2019-04-10T06:52:01.911Z,488.92
2019-04-10T06:53:01.519Z,490.21
2019-04-10T06:54:06.756Z,493.64
2019-04-10T06:55:03.006Z,494.29
2019-04-10T06:56:01.491Z,492.81
2019-04-10T06:57:01.472Z,493.77
2019-04-10T06:58:02.623Z,491.04
2019-04-10T06:59:02.504Z,494.83
2019-04-10T07:00:02.342Z,492.85
2019-04-10T07:01:01.914Z,491.49
2019-04-10T07:02:13.964Z,492.74
2019-04-10T07:03:03.111Z,492.46
2019-04-10T07:04:06.501Z,491.00
2019-04-10T07:05:07.067Z,492.84
2019-04-10T07:06:09.649Z,492.58
2019-04-10T07:07:07.798Z,493.44
2019-04-10T07:08:11.461Z,493.38
2019-04-10T07:09:03.278Z,495.14
2019-04-10T07:10:02.323Z,493.02
2019-04-10T07:11:05.972Z,494.64
2019-04-10T07:12:04.211Z,496.70
2019-04-10T07:13:04.284Z,496.92
2019-04-10T07:14:02.275Z,494.09
2019-04-10T07:15:02.343Z,493.79
2019-04-10T07:16:02.163Z,496.27
2019-04-10T07:17:05.344Z,489.29
2019-04-10T07:18:03.047Z,491.30
2019-04-10T07:19:04.328Z,492.79
2019-04-10T07:20:02.226Z,492.19
2019-04-10T07:21:01.985Z,494.94
2019-04-10T07:22:02.025Z,492.51
2019-04-10T07:23:01.180Z,495.38
2019-04-10T07:24:04.986Z,498.77
2019-04-10T07:25:02.828Z,496.52
2019-04-10T07:26:01.838Z,494.48
2019-04-10T07:27:03.403Z,497.93
2019-04-10T07:28:01.397Z,493.56
2019-04-10T07:29:01.117Z,494.06
2019-04-10T07:30:01.610Z,493.83
2019-04-10T07:31:04.985Z,493.25
2019-04-10T07:32:04.776Z,494.62
2019-04-10T07:33:02.074Z,493.58
2019-04-10T07:34:01.397Z,493.58
2019-04-10T07:35:01.871Z,498.23
2019-04-10T07:36:04.190Z,494.92
2019-04-10T07:37:02.306Z,496.04
2019-04-10T07:38:01.372Z,493.41
2019-04-10T07:39:01.494Z,495.74
2019-04-10T07:40:04.116Z,498.01
2019-04-10T07:41:01.006Z,497.15
2019-04-10T07:42:01.987Z,495.70
2019-04-10T07:43:02.053Z,494.26
2019-04-10T07:44:01.713Z,495.04
2019-04-10T07:45:00.944Z,492.91
2019-04-10T07:46:00.964Z,493.77
2019-04-10T07:47:00.991Z,495.27
2019-04-10T07:48:00.919Z,499.39
2019-04-10T07:49:00.937Z,497.20
2019-04-10T07:50:02.170Z,495.76
2019-04-10T07:51:00.870Z,495.26
2019-04-10T07:52:02.213Z,497.43
2019-04-10T07:53:01.906Z,498.97
2019-04-10T07:54:01.844Z,498.29
2019-04-10T07:55:01.030Z,499.12
2019-04-10T07:56:06.506Z,499.49
2019-04-10T07:57:02.137Z,498.67
2019-04-10T07:58:00.796Z,496.06
2019-04-10T07:59:00.793Z,495.58
2019-04-10T08:00:00.945Z,492.51
2019-04-10T08:01:01.008Z,492.62
2019-04-10T08:02:00.778Z,489.10
2019-04-10T08:03:00.751Z,496.52
2019-04-10T08:04:01.806Z,491.66
2019-04-10T08:05:00.719Z,494.28
2019-04-10T08:06:00.704Z,493.94
2019-04-10T08:07:00.989Z,494.37
2019-04-10T08:08:00.989Z,496.39
2019-04-10T08:09:01.295Z,497.63
2019-04-10T08:10:01.445Z,497.00
2019-04-10T08:11:01.606Z,498.02
2019-04-10T08:12:00.855Z,500.70
2019-04-10T08:13:00.623Z,500.89
2019-04-10T08:14:01.109Z,501.89
2019-04-10T08:15:00.722Z,502.38
2019-04-10T08:16:00.711Z,498.47
2019-04-10T08:17:00.613Z,497.56
2019-04-10T08:18:00.607Z,494.08
2019-04-10T08:19:00.557Z,494.26
2019-04-10T08:20:01.575Z,493.47
2019-04-10T08:21:00.537Z,496.71
2019-04-10T08:22:01.218Z,495.76
2019-04-10T08:23:01.499Z,495.81
2019-04-10T08:24:00.519Z,502.13
2019-04-10T08:25:00.494Z,503.02
2019-04-10T08:26:00.474Z,502.13
2019-04-10T08:27:01.194Z,499.39
2019-04-10T08:28:00.710Z,498.79
2019-04-10T08:29:01.522Z,498.93
2019-04-10T08:30:01.206Z,499.32
2019-04-10T08:31:01.029Z,498.94
2019-04-10T08:32:01.339Z,503.76
2019-04-10T08:33:02.409Z,498.87
2019-04-10T08:34:01.108Z,501.65
2019-04-10T08:35:00.426Z,500.80
2019-04-10T08:36:01.146Z,499.50
2019-04-10T08:37:00.357Z,499.50
2019-04-10T08:38:01.359Z,495.52
2019-04-10T08:39:00.340Z,499.01
2019-04-10T08:40:00.338Z,502.51
2019-04-10T08:41:00.732Z,497.92
2019-04-10T08:42:00.299Z,498.89
2019-04-10T08:43:00.323Z,498.09
2019-04-10T08:44:00.282Z,498.63
2019-04-10T08:45:00.802Z,499.43
2019-04-10T08:46:01.743Z,500.20
2019-04-10T08:47:00.250Z,499.12
2019-04-10T08:48:01.340Z,496.03
2019-04-10T08:49:00.293Z,495.78
2019-04-10T08:50:01.365Z,494.42
2019-04-10T08:51:01.051Z,493.95
2019-04-10T08:52:00.191Z,494.79
2019-04-10T08:53:00.180Z,495.44
2019-04-10T08:54:00.645Z,494.31
2019-04-10T08:55:00.150Z,493.76
2019-04-10T08:56:00.145Z,494.38
2019-04-10T08:57:01.028Z,493.54
2019-04-10T08:58:00.761Z,492.77
2019-04-10T08:59:00.352Z,492.97
2019-04-10T09:00:00.426Z,500.96
2019-04-10T09:01:00.738Z,496.19
2019-04-10T09:02:00.086Z,495.68
2019-04-10T09:03:00.318Z,498.30
2019-04-10T09:04:00.095Z,502.95
2019-04-10T09:05:00.056Z,499.75
2019-04-10T09:06:00.954Z,497.21
2019-04-10T09:07:03.492Z,501.34
2019-04-10T09:08:00.305Z,496.67
2019-04-10T09:09:01.315Z,494.08
2019-04-10T09:10:00.027Z,494.15
2019-04-10T09:11:00.941Z,498.50
2019-04-10T09:11:59.963Z,497.14
2019-04-10T09:13:00.076Z,497.86
2019-04-10T09:14:01.003Z,493.58
2019-04-10T09:14:59.955Z,496.49
2019-04-10T09:16:00.446Z,492.58
2019-04-10T09:17:00.743Z,488.90
2019-04-10T09:17:59.899Z,498.26
2019-04-10T09:18:59.897Z,499.23
2019-04-10T09:20:00.557Z,497.60
2019-04-10T09:20:59.890Z,501.03
2019-04-10T09:21:59.866Z,500.57
2019-04-10T09:23:15.541Z,500.32
2019-04-10T09:24:00.840Z,494.49
2019-04-10T09:25:00.708Z,498.89
2019-04-10T09:25:59.826Z,500.13
2019-04-10T09:27:00.544Z,500.37
2019-04-10T09:28:00.192Z,498.15
2019-04-10T09:28:59.778Z,495.76
2019-04-10T09:30:00.437Z,496.52
2019-04-10T09:30:59.755Z,495.45
2019-04-10T09:31:59.765Z,496.47
2019-04-10T09:33:00.688Z,493.93
2019-04-10T09:33:59.764Z,492.66
2019-04-10T09:35:00.337Z,496.62
2019-04-10T09:36:00.612Z,498.11
2019-04-10T09:36:59.965Z,494.91
2019-04-10T09:37:59.694Z,496.19
2019-04-10T09:38:59.682Z,498.48
2019-04-10T09:40:00.127Z,498.14
2019-04-10T09:40:59.663Z,495.97
2019-04-10T09:42:00.945Z,497.85
2019-04-10T09:42:59.801Z,498.56
2019-04-10T09:44:00.292Z,498.36
2019-04-10T09:45:00.421Z,500.61
2019-04-10T09:46:00.023Z,497.55
2019-04-10T09:47:00.007Z,499.73
2019-04-10T09:48:00.008Z,500.08
2019-04-10T09:49:00.483Z,497.80
2019-04-10T09:49:59.769Z,498.07
2019-04-10T09:51:00.258Z,492.02
2019-04-10T09:52:00.606Z,493.96
2019-04-10T09:53:00.015Z,497.58
2019-04-10T09:53:59.524Z,498.76
2019-04-10T09:54:59.654Z,501.17
2019-04-10T09:55:59.514Z,498.43
2019-04-10T09:56:59.475Z,495.40
2019-04-10T09:58:00.174Z,494.40
2019-04-10T09:58:59.455Z,494.21
2019-04-10T09:59:59.439Z,497.73
2019-04-10T10:01:01.398Z,491.69
2019-04-10T10:02:00.408Z,495.09
2019-04-10T10:02:59.439Z,495.03
2019-04-10T10:03:59.412Z,495.21
2019-04-10T10:04:59.398Z,496.45
2019-04-10T10:06:00.268Z,493.93
2019-04-10T10:06:59.805Z,500.64
2019-04-10T10:08:00.195Z,498.66
2019-04-10T10:09:00.343Z,499.42
2019-04-10T10:10:00.842Z,500.75
2019-04-10T10:10:59.726Z,498.57
2019-04-10T10:11:59.310Z,500.02
2019-04-10T10:12:59.310Z,498.26
2019-04-10T10:13:59.290Z,499.09
2019-04-10T10:15:00.180Z,498.14
2019-04-10T10:15:59.280Z,494.89
2019-04-10T10:17:00.163Z,496.64
2019-04-10T10:17:59.293Z,499.22
2019-04-10T10:18:59.476Z,498.56
2019-04-10T10:19:59.552Z,498.56
2019-04-10T10:20:59.864Z,498.34
2019-04-10T10:22:01.862Z,501.32
2019-04-10T10:23:01.204Z,497.26
2019-04-10T10:24:00.268Z,499.91
2019-04-10T10:24:59.414Z,496.08
2019-04-10T10:25:59.606Z,500.91
2019-04-10T10:26:59.812Z,500.17
2019-04-10T10:27:59.133Z,496.93
2019-04-10T10:28:59.119Z,496.56
2019-04-10T10:29:59.965Z,499.38
2019-04-10T10:30:59.943Z,500.09
2019-04-10T10:32:00.295Z,499.29
2019-04-10T10:32:59.378Z,498.17
2019-04-10T10:33:59.081Z,497.84
2019-04-10T10:34:59.071Z,502.29
2019-04-10T10:35:59.810Z,498.26
2019-04-10T10:37:00.038Z,498.13
2019-04-10T10:37:59.022Z,498.46
2019-04-10T10:39:06.886Z,495.81
2019-04-10T10:40:00.262Z,498.74
2019-04-10T10:40:59.162Z,497.30
2019-04-10T10:41:58.992Z,497.43
2019-04-10T10:43:00.242Z,494.25
2019-04-10T10:43:58.951Z,490.71
2019-04-10T10:44:58.970Z,491.66
2019-04-10T10:45:59.016Z,501.58
2019-04-10T10:46:59.934Z,501.95
2019-04-10T10:47:58.906Z,501.62
2019-04-10T10:49:00.013Z,504.56
2019-04-10T10:49:59.090Z,496.93
2019-04-10T10:50:58.870Z,492.92
2019-04-10T10:51:59.436Z,498.50
2019-04-10T10:52:59.754Z,498.14
2019-04-10T10:54:01.418Z,499.54
2019-04-10T10:54:59.047Z,498.10
2019-04-10T10:55:59.894Z,497.28
2019-04-10T10:56:58.829Z,496.23
2019-04-10T10:57:59.660Z,495.46
2019-04-10T10:58:59.030Z,494.06
2019-04-10T10:59:59.806Z,494.07
2019-04-10T11:00:59.758Z,503.70
2019-04-10T11:01:58.792Z,503.08
2019-04-10T11:02:58.746Z,500.12
2019-04-10T11:03:58.752Z,505.47
2019-04-10T11:05:02.201Z,496.97
2019-04-10T11:06:00.476Z,501.92
2019-04-10T11:07:00.970Z,502.45
2019-04-10T11:07:59.874Z,502.44
2019-04-10T11:08:59.405Z,502.63
2019-04-10T11:09:58.663Z,500.62
2019-04-10T11:10:59.388Z,501.97
2019-04-10T11:11:59.883Z,502.09
2019-04-10T11:12:58.636Z,504.40
2019-04-10T11:13:58.959Z,505.64
2019-04-10T11:14:59.453Z,502.94
2019-04-10T11:16:03.171Z,506.49
2019-04-10T11:16:59.602Z,502.82
2019-04-10T11:17:58.588Z,502.00
2019-04-10T11:18:58.991Z,503.51
2019-04-10T11:19:59.500Z,500.65
2019-04-10T11:21:04.140Z,506.80
2019-04-10T11:21:59.698Z,501.82
2019-04-10T11:23:00.223Z,501.39
2019-04-10T11:23:58.536Z,505.42
2019-04-10T11:24:59.697Z,502.26
2019-04-10T11:25:58.490Z,501.63
2019-04-10T11:26:58.498Z,499.86
2019-04-10T11:27:58.564Z,504.88
2019-04-10T11:28:58.459Z,499.48
2019-04-10T11:30:00.822Z,503.66
2019-04-10T11:30:58.692Z,503.27
2019-04-10T11:31:59.909Z,511.13
2019-04-10T11:32:58.433Z,504.68
2019-04-10T11:33:58.402Z,506.17
2019-04-10T11:34:59.028Z,503.46
2019-04-10T11:36:00.102Z,503.36
2019-04-10T11:37:16.620Z,505.39
2019-04-10T11:38:01.039Z,505.22
2019-04-10T11:39:10.576Z,499.80
2019-04-10T11:40:01.255Z,505.59
2019-04-10T11:41:00.093Z,498.87
2019-04-10T11:41:58.874Z,500.58
2019-04-10T11:43:00.163Z,498.03
2019-04-10T11:43:58.302Z,502.59
2019-04-10T11:44:59.352Z,502.00
2019-04-10T11:46:02.108Z,503.02
2019-04-10T11:46:58.772Z,500.70
2019-04-10T11:47:58.965Z,505.74
2019-04-10T11:48:58.230Z,498.56
2019-04-10T11:49:59.358Z,498.38
2019-04-10T11:50:59.691Z,503.34
2019-04-10T11:52:00.002Z,505.46
2019-04-10T11:53:00.310Z,507.52
2019-04-10T11:53:59.172Z,509.60
2019-04-10T11:55:08.740Z,503.11
2019-04-10T11:56:02.859Z,506.07
2019-04-10T11:57:02.879Z,501.05
2019-04-10T11:58:00.016Z,503.52
2019-04-10T11:58:59.170Z,509.33
2019-04-10T12:00:01.134Z,504.07
2019-04-10T12:01:00.144Z,498.49
2019-04-10T12:02:00.723Z,503.13
2019-04-10T12:03:00.780Z,496.79
2019-04-10T12:03:58.476Z,502.87
2019-04-10T12:05:03.446Z,495.93
2019-04-10T12:05:59.744Z,500.70
2019-04-10T12:07:01.497Z,498.73
2019-04-10T12:09:19.454Z,503.12
2019-04-10T12:11:57.998Z,504.58
2019-04-10T12:12:57.969Z,504.91
2019-04-10T12:13:58.948Z,505.53
2019-04-10T12:14:57.952Z,501.41
2019-04-10T12:15:58.916Z,502.54
2019-04-10T12:16:57.940Z,505.11
2019-04-10T12:17:58.223Z,497.16
2019-04-10T12:18:57.900Z,495.29
2019-04-10T12:19:57.896Z,494.05
2019-04-10T12:20:57.928Z,491.46
2019-04-10T12:21:58.053Z,498.86
2019-04-10T12:22:58.701Z,501.69
2019-04-10T12:23:58.857Z,500.04
2019-04-10T12:24:58.501Z,500.31
2019-04-10T12:25:57.822Z,502.81
2019-04-10T12:26:58.330Z,500.95
2019-04-10T12:27:57.887Z,502.44
2019-04-10T12:28:58.258Z,496.46
2019-04-10T12:29:57.778Z,525.45
2019-04-10T12:30:57.767Z,501.00